Time;durP1;ratioP1;P1;durP2;ratioP2;P2;SDS_P1;SDS_P2;PMS_P1;PMS_P2;Temp;Humidity;BMP_temperature;BMP_pressure;BME280_temperature;BME280_humidity;BME280_pressure;Samples;Min_cycle;Max_cycle;Signal;HPM_P1;HPM_P2
2023/09/15 00:00:47;;;;;;;1.13;0.70;;;12.80;1.00;;;;;;4885617;29;20052;-79
2023/09/15 00:03:13;;;;;;;0.70;0.60;;;12.80;1.00;;;;;;4878548;29;20056;-79
2023/09/15 00:05:39;;;;;;;1.42;0.60;;;12.80;99.90;;;;;;4897145;29;20388;-79
2023/09/15 00:08:05;;;;;;;;;;;12.80;99.90;;;;;;4882081;29;20049;-79
2023/09/15 00:10:33;;;;;;;1.02;0.60;;;12.80;1.00;;;;;;4883990;29;19923;-79
2023/09/15 00:12:59;;;;;;;0.50;0.40;;;12.70;1.00;;;;;;4869999;29;20407;-79
2023/09/15 00:15:25;;;;;;;1.15;0.70;;;12.70;1.00;;;;;;4880434;29;20048;-79
2023/09/15 00:17:51;;;;;;;;;;;12.60;1.00;;;;;;4889151;29;20052;-78
2023/09/15 00:20:17;;;;;;;1.13;0.70;;;12.60;40.20;;;;;;4878033;29;20284;-79
2023/09/15 00:22:49;;;;;;;1.20;0.70;;;12.60;1.00;;;;;;4862605;29;20188;-79
2023/09/15 00:25:36;;;;;;;1.95;0.52;;;12.60;1.00;;;;;;4873574;29;20150;-79
2023/09/15 00:28:03;;;;;;;1.40;0.60;;;12.60;1.00;;;;;;4870942;29;20043;-78
2023/09/15 00:30:29;;;;;;;1.00;0.60;;;12.60;1.00;;;;;;4869656;29;20052;-78
2023/09/15 00:32:56;;;;;;;0.77;0.47;;;12.60;7.70;;;;;;4877041;29;20041;-78
2023/09/15 00:35:24;;;;;;;1.45;0.80;;;12.60;5.20;;;;;;4879682;29;20056;-78
2023/09/15 00:37:51;;;;;;;0.95;0.55;;;12.60;6.80;;;;;;4871148;29;20094;-78
2023/09/15 00:40:19;;;;;;;1.20;0.70;;;12.60;15.20;;;;;;4874956;29;20405;-78
2023/09/15 00:42:47;;;;;;;1.10;0.57;;;12.60;10.30;;;;;;4876235;29;20057;-78
2023/09/15 00:45:14;;;;;;;1.00;0.60;;;12.60;12.10;;;;;;4875984;29;20507;-79
2023/09/15 00:47:46;;;;;;;0.98;0.50;;;12.50;1.00;;;;;;4848414;29;20095;-78
2023/09/15 00:50:18;;;;;;;0.82;0.50;;;12.50;1.00;;;;;;4879602;29;20063;-78
2023/09/15 00:52:50;;;;;;;1.30;0.70;;;12.50;1.00;;;;;;4877310;29;20049;-77
2023/09/15 00:55:19;;;;;;;1.42;0.60;;;12.50;1.00;;;;;;4894199;29;20155;-77
2023/09/15 00:57:47;;;;;;;1.23;0.80;;;12.50;1.00;;;;;;4880790;29;20072;-78
2023/09/15 01:00:14;;;;;;;0.82;0.60;;;12.50;1.00;;;;;;4876651;29;20041;-79
2023/09/15 01:02:42;;;;;;;1.20;0.68;;;12.50;1.00;;;;;;4860358;29;20482;-78
2023/09/15 01:05:10;;;;;;;0.93;0.63;;;12.50;1.00;;;;;;4861278;29;20544;-78
2023/09/15 01:07:37;;;;;;;1.48;0.80;;;12.50;1.00;;;;;;4877666;29;20056;-78
2023/09/15 01:10:04;;;;;;;1.42;0.60;;;12.50;1.00;;;;;;4876202;29;20172;-78
2023/09/15 01:12:31;;;;;;;0.82;0.60;;;12.40;1.00;;;;;;4881385;29;20048;-78
2023/09/15 01:14:56;;;;;;;;;;;12.40;11.80;;;;;;4844659;29;20055;-78
2023/09/15 01:17:28;;;;;;;1.45;0.77;;;12.40;34.70;;;;;;4879054;29;19919;-78
2023/09/15 01:20:06;;;;;;;1.33;0.50;;;12.30;42.30;;;;;;4861697;29;20041;-78
2023/09/15 01:22:44;;;;;;;2.15;0.70;;;12.30;70.00;;;;;;4891285;29;20087;-78
2023/09/15 01:25:29;;;;;;;1.00;0.60;;;12.30;95.80;;;;;;4870131;29;20470;-78
2023/09/15 01:28:20;;;;;;;0.88;0.57;;;12.30;99.90;;;;;;4873924;29;20052;-78
2023/09/15 01:30:49;;;;;;;0.85;0.57;;;12.20;99.90;;;;;;4874886;29;20708;-78
2023/09/15 01:33:18;;;;;;;1.13;0.50;;;12.20;99.90;;;;;;4874244;29;20045;-78
2023/09/15 01:35:44;;;;;;;1.65;0.65;;;12.10;99.90;;;;;;4859060;29;20053;-79
2023/09/15 01:38:09;;;;;;;1.20;0.55;;;12.20;99.90;;;;;;4870544;29;20053;-78
2023/09/15 01:40:37;;;;;;;0.93;0.50;;;12.10;99.90;;;;;;4881109;29;20052;-78
2023/09/15 01:43:03;;;;;;;0.70;0.50;;;12.10;99.90;;;;;;4874919;29;20386;-78
2023/09/15 01:45:30;;;;;;;1.23;0.50;;;12.10;99.90;;;;;;4873933;29;20124;-78
2023/09/15 01:47:55;;;;;;;;;;;12.10;99.90;;;;;;4881816;29;20524;-78
2023/09/15 01:50:22;;;;;;;1.05;0.60;;;12.10;99.90;;;;;;4879750;29;19923;-78
2023/09/15 01:52:48;;;;;;;1.65;0.52;;;12.10;99.90;;;;;;4865645;29;20108;-78
2023/09/15 01:55:15;;;;;;;1.00;0.60;;;12.10;99.90;;;;;;4883644;29;20516;-78
2023/09/15 01:57:41;;;;;;;1.00;0.63;;;12.00;99.90;;;;;;4864121;29;20041;-78
2023/09/15 02:00:08;;;;;;;0.40;0.40;;;12.00;99.90;;;;;;4878346;29;20825;-78
2023/09/15 02:02:33;;;;;;;1.40;0.60;;;12.00;99.90;;;;;;4883829;29;20040;-78
2023/09/15 02:04:59;;;;;;;0.73;0.50;;;12.00;99.90;;;;;;4875404;29;20096;-78
2023/09/15 02:07:25;;;;;;;1.30;0.65;;;11.90;99.90;;;;;;4875742;29;20144;-78
2023/09/15 02:09:50;;;;;;;1.13;0.50;;;11.90;99.90;;;;;;4871005;29;20092;-78
2023/09/15 02:12:16;;;;;;;1.00;0.55;;;11.90;1.00;;;;;;4875008;29;20073;-78
2023/09/15 02:14:43;;;;;;;1.55;0.45;;;11.90;1.00;;;;;;4859313;29;20136;-78
2023/09/15 02:17:13;;;;;;;0.75;0.55;;;11.80;1.00;;;;;;4873867;29;20565;-78
2023/09/15 02:19:38;;;;;;;0.68;0.50;;;11.80;1.00;;;;;;4875293;29;20061;-78
2023/09/15 02:22:04;;;;;;;0.68;0.50;;;11.80;1.00;;;;;;4875066;29;20528;-78
2023/09/15 02:24:31;;;;;;;0.70;0.40;;;11.70;1.00;;;;;;4874327;29;20080;-78
2023/09/15 02:26:57;;;;;;;1.52;0.75;;;11.70;1.00;;;;;;4872927;29;20403;-78
2023/09/15 02:29:23;;;;;;;1.00;0.50;;;11.70;26.90;;;;;;4871636;29;20044;-78
2023/09/15 02:31:51;;;;;;;1.30;0.45;;;11.60;59.60;;;;;;4871418;29;20127;-78
2023/09/15 02:34:16;;;;;;;0.40;0.40;;;11.60;56.00;;;;;;4874501;29;20052;-78
2023/09/15 02:36:43;;;;;;;0.75;0.70;;;11.60;84.30;;;;;;4874788;29;20112;-78
2023/09/15 02:39:09;;;;;;;1.17;0.45;;;11.60;86.50;;;;;;4859952;29;20519;-78
2023/09/15 02:41:36;;;;;;;0.60;0.60;;;11.60;89.70;;;;;;4857077;29;20117;-78
2023/09/15 02:44:02;;;;;;;1.30;0.70;;;11.60;96.10;;;;;;4874814;29;20048;-77
2023/09/15 02:46:27;;;;;;;0.65;0.40;;;11.60;94.50;;;;;;4871501;29;20060;-78
2023/09/15 02:48:54;;;;;;;1.77;0.60;;;11.50;99.90;;;;;;4864368;29;20045;-78
2023/09/15 02:51:19;;;;;;;;;;;11.60;99.90;;;;;;4860698;29;20373;-78
2023/09/15 02:53:45;;;;;;;2.47;0.70;;;11.60;99.90;;;;;;4890212;29;19928;-78
2023/09/15 02:56:10;;;;;;;0.93;0.45;;;11.50;99.90;;;;;;4874893;29;20477;-78
2023/09/15 02:58:36;;;;;;;0.95;0.55;;;11.50;99.90;;;;;;4859938;29;20121;-78
2023/09/15 03:01:15;;;;;;;1.63;0.63;;;11.50;99.90;;;;;;4874993;29;20029;-78
2023/09/15 03:03:41;;;;;;;0.85;0.50;;;11.50;99.90;;;;;;4870758;29;20053;-78
2023/09/15 03:06:09;;;;;;;1.23;0.70;;;11.50;99.90;;;;;;4869291;29;20049;-78
2023/09/15 03:08:35;;;;;;;1.20;0.60;;;11.50;99.90;;;;;;4877374;29;20080;-78
2023/09/15 03:11:01;;;;;;;0.85;0.45;;;11.50;99.90;;;;;;4877226;29;20052;-78
2023/09/15 03:13:27;;;;;;;3.00;0.52;;;11.50;99.90;;;;;;4876345;29;20496;-78
2023/09/15 03:15:53;;;;;;;0.98;0.50;;;11.50;99.90;;;;;;4875669;29;20053;-78
2023/09/15 03:18:18;;;;;;;0.75;0.60;;;11.50;99.90;;;;;;4888705;29;20496;-78
2023/09/15 03:20:44;;;;;;;0.88;0.57;;;11.40;99.90;;;;;;4877976;29;20037;-78
2023/09/15 03:23:10;;;;;;;1.33;0.57;;;11.40;99.90;;;;;;4881351;29;20108;-78
2023/09/15 03:25:35;;;;;;;1.58;0.60;;;11.40;99.90;;;;;;4869594;29;20055;-78
2023/09/15 03:28:01;;;;;;;0.50;0.40;;;11.40;99.90;;;;;;4874340;29;20048;-78
2023/09/15 03:30:27;;;;;;;0.95;0.60;;;11.30;99.90;;;;;;4859896;29;20136;-78
2023/09/15 03:32:53;;;;;;;0.80;0.50;;;11.40;99.90;;;;;;4861935;29;20049;-78
2023/09/15 03:35:20;;;;;;;0.77;0.40;;;11.30;99.90;;;;;;4886321;29;20560;-78
2023/09/15 03:37:46;;;;;;;1.23;0.60;;;11.20;99.90;;;;;;4875574;29;20429;-78
2023/09/15 03:40:14;;;;;;;0.90;0.50;;;11.30;99.90;;;;;;4875195;29;20041;-78
2023/09/15 03:42:40;;;;;;;1.63;1.10;;;11.20;99.90;;;;;;4878790;29;20056;-78
2023/09/15 03:45:09;;;;;;;0.68;0.50;;;11.20;99.90;;;;;;4883878;29;20057;-78
2023/09/15 03:47:35;;;;;;;0.77;0.60;;;11.20;99.90;;;;;;4881943;29;20048;-78
2023/09/15 03:50:02;;;;;;;0.50;0.50;;;11.10;99.90;;;;;;4887429;29;20040;-78
2023/09/15 03:52:28;;;;;;;0.90;0.60;;;11.10;99.90;;;;;;4880129;29;20084;-79
2023/09/15 03:55:00;;;;;;;1.08;0.63;;;11.10;99.90;;;;;;4890182;29;20131;-79
2023/09/15 03:57:27;;;;;;;0.80;0.60;;;11.10;99.90;;;;;;4880892;29;20093;-79
2023/09/15 03:59:53;;;;;;;0.68;0.50;;;11.00;99.90;;;;;;4889320;29;20047;-79
2023/09/15 04:02:19;;;;;;;0.60;0.40;;;11.00;99.90;;;;;;4881046;29;20052;-79
2023/09/15 04:04:44;;;;;;;1.35;0.68;;;11.00;99.90;;;;;;4877052;29;20040;-79
2023/09/15 04:07:10;;;;;;;1.02;0.65;;;10.90;99.90;;;;;;4876823;29;20044;-78
2023/09/15 04:09:36;;;;;;;1.45;0.82;;;10.90;99.90;;;;;;4846859;29;20050;-78
2023/09/15 04:12:03;;;;;;;1.00;0.50;;;10.90;99.90;;;;;;4878198;29;20041;-79
2023/09/15 04:14:34;;;;;;;1.45;0.50;;;10.90;99.90;;;;;;4872744;29;20569;-78
2023/09/15 04:17:00;;;;;;;1.30;0.60;;;10.90;99.90;;;;;;4877086;29;20049;-79
2023/09/15 04:19:25;;;;;;;0.90;0.60;;;10.80;99.90;;;;;;4856034;29;20036;-79
2023/09/15 04:21:51;;;;;;;0.77;0.57;;;10.80;99.90;;;;;;4859946;29;20100;-79
2023/09/15 04:24:16;;;;;;;1.40;0.70;;;10.80;99.90;;;;;;4862080;29;20052;-79
2023/09/15 04:26:43;;;;;;;0.85;0.50;;;10.80;99.90;;;;;;4861524;29;20139;-79
2023/09/15 04:29:09;;;;;;;0.60;0.50;;;10.70;99.90;;;;;;4876860;29;20053;-78
2023/09/15 04:31:37;;;;;;;1.13;0.60;;;10.70;99.90;;;;;;4877142;29;20049;-78
2023/09/15 04:34:03;;;;;;;0.68;0.60;;;10.70;99.90;;;;;;4877602;29;20116;-78
2023/09/15 04:36:30;;;;;;;0.50;0.47;;;10.70;99.90;;;;;;4877173;29;20496;-79
2023/09/15 04:38:56;;;;;;;;;;;10.60;99.90;;;;;;4875165;29;20045;-79
2023/09/15 04:41:22;;;;;;;1.00;0.60;;;10.60;99.90;;;;;;4873257;29;20315;-79
2023/09/15 04:43:47;;;;;;;0.85;0.63;;;10.60;99.90;;;;;;4876088;29;20076;-79
2023/09/15 04:46:13;;;;;;;0.82;0.50;;;10.60;99.90;;;;;;4864065;29;20446;-78
2023/09/15 04:48:39;;;;;;;0.60;0.40;;;10.60;99.90;;;;;;4875585;29;20040;-78
2023/09/15 04:51:05;;;;;;;0.90;0.68;;;10.60;99.90;;;;;;4874504;29;20080;-78
2023/09/15 04:53:32;;;;;;;1.05;0.70;;;10.60;99.90;;;;;;4852874;29;20080;-78
2023/09/15 04:55:58;;;;;;;1.05;0.80;;;10.60;99.90;;;;;;4871872;29;20037;-78
2023/09/15 04:58:25;;;;;;;1.38;0.80;;;10.60;99.90;;;;;;4875288;29;20064;-78
2023/09/15 05:00:50;;;;;;;1.17;0.73;;;10.60;99.90;;;;;;4859280;29;20489;-78
2023/09/15 05:03:16;;;;;;;1.05;0.80;;;10.50;99.90;;;;;;4879612;29;20122;-78
2023/09/15 05:05:43;;;;;;;1.23;0.77;;;10.60;99.90;;;;;;4860618;29;20049;-78
2023/09/15 05:08:09;;;;;;;0.90;0.80;;;10.50;99.90;;;;;;4875656;29;20370;-78
2023/09/15 05:10:34;;;;;;;0.95;0.70;;;10.60;99.90;;;;;;4875987;29;20048;-78
2023/09/15 05:13:05;;;;;;;0.73;0.70;;;10.50;99.90;;;;;;4860796;29;20191;-78
2023/09/15 05:15:30;;;;;;;1.05;0.80;;;10.50;99.90;;;;;;4876474;29;20055;-78
2023/09/15 05:17:56;;;;;;;0.47;0.47;;;10.60;99.90;;;;;;4874723;29;20084;-78
2023/09/15 05:33:41;;;;;;;0.85;0.70;;;10.50;99.90;;;;;;2179090;27;20052;-77
2023/09/15 05:36:07;;;;;;;0.70;0.60;;;10.50;99.90;;;;;;4889320;29;20064;-77
2023/09/15 05:38:33;;;;;;;1.10;0.52;;;10.50;99.90;;;;;;4885331;29;20045;-77
2023/09/15 05:40:59;;;;;;;1.00;0.73;;;10.50;99.90;;;;;;4883973;29;20040;-77
2023/09/15 05:43:25;;;;;;;0.65;0.60;;;10.50;99.90;;;;;;4886754;29;20088;-77
2023/09/15 05:45:50;;;;;;;1.25;0.80;;;10.60;99.90;;;;;;4872002;29;20049;-77
2023/09/15 05:48:22;;;;;;;0.93;0.68;;;10.60;99.90;;;;;;4892759;29;20051;-77
2023/09/15 05:50:51;;;;;;;0.80;0.80;;;10.60;99.90;;;;;;4890959;29;20037;-78
2023/09/15 05:53:17;;;;;;;1.05;0.77;;;10.60;99.90;;;;;;4869863;29;20606;-78
2023/09/15 05:55:42;;;;;;;1.48;0.88;;;10.70;99.90;;;;;;4883887;29;20044;-78
2023/09/15 05:58:08;;;;;;;1.17;0.93;;;10.70;99.90;;;;;;4880910;29;20112;-77
2023/09/15 06:00:34;;;;;;;0.95;0.90;;;10.80;99.90;;;;;;4891336;29;20040;-76
2023/09/15 06:02:59;;;;;;;1.35;0.90;;;10.80;99.90;;;;;;4892999;29;20480;-77
2023/09/15 06:05:25;;;;;;;1.17;0.90;;;10.90;99.90;;;;;;4889097;29;20147;-77
2023/09/15 06:07:52;;;;;;;1.00;0.90;;;10.90;99.90;;;;;;4871003;29;20048;-77
2023/09/15 06:10:18;;;;;;;1.08;0.70;;;10.90;99.90;;;;;;4886377;29;20153;-77
2023/09/15 06:12:43;;;;;;;1.05;0.90;;;11.00;99.90;;;;;;4875787;29;20033;-77
2023/09/15 06:15:10;;;;;;;1.00;0.90;;;11.00;99.90;;;;;;4887689;29;20408;-77
2023/09/15 06:17:36;;;;;;;2.08;1.23;;;11.10;99.90;;;;;;4889485;29;20120;-77
2023/09/15 06:20:04;;;;;;;2.35;1.35;;;11.10;99.90;;;;;;4889805;29;20475;-77
2023/09/15 06:22:30;;;;;;;1.40;1.00;;;11.20;99.90;;;;;;4892263;29;20036;-77
2023/09/15 06:24:56;;;;;;;2.08;1.30;;;11.30;99.90;;;;;;4891139;29;20064;-76
2023/09/15 06:27:22;;;;;;;1.77;1.27;;;11.40;99.90;;;;;;4873208;29;20044;-77
2023/09/15 06:29:47;;;;;;;1.25;0.80;;;11.50;99.90;;;;;;4884669;29;20064;-77
2023/09/15 06:32:13;;;;;;;1.15;1.00;;;11.50;99.90;;;;;;4868199;29;20127;-77
2023/09/15 06:34:39;;;;;;;1.20;0.90;;;11.60;99.90;;;;;;4870980;29;20061;-77
2023/09/15 06:37:05;;;;;;;2.53;1.55;;;11.70;99.90;;;;;;4867431;29;20049;-77
2023/09/15 06:39:31;;;;;;;2.05;1.13;;;11.80;99.90;;;;;;4850661;29;20052;-77
2023/09/15 06:41:57;;;;;;;1.95;1.15;;;11.80;99.90;;;;;;4870574;29;20067;-77
2023/09/15 06:44:23;;;;;;;1.35;0.95;;;12.00;99.90;;;;;;4872250;29;20120;-84
2023/09/15 06:46:49;;;;;;;1.75;1.20;;;12.10;99.90;;;;;;4868889;29;20085;-73
2023/09/15 06:49:21;;;;;;;1.95;1.20;;;12.20;99.90;;;;;;4871624;29;20249;-74
2023/09/15 06:51:48;;;;;;;2.15;1.25;;;12.60;99.90;;;;;;4870591;29;20081;-75
2023/09/15 06:54:13;;;;;;;2.42;1.27;;;13.10;99.90;;;;;;4865120;29;20062;-73
2023/09/15 06:56:39;;;;;;;2.10;1.30;;;13.50;99.90;;;;;;4861827;29;20053;-74
2023/09/15 06:59:05;;;;;;;2.42;1.40;;;13.90;99.90;;;;;;4871370;29;20040;-74
2023/09/15 07:01:30;;;;;;;1.65;1.10;;;14.30;99.90;;;;;;4869454;29;20178;-76
2023/09/15 07:03:56;;;;;;;1.70;1.25;;;14.60;3.40;;;;;;4870913;29;20096;-76
2023/09/15 07:06:22;;;;;;;1.52;1.02;;;14.80;17.00;;;;;;4840244;29;20053;-77
2023/09/15 07:08:49;;;;;;;2.13;1.10;;;15.10;1.00;;;;;;4869670;29;20147;-77
2023/09/15 07:11:15;;;;;;;2.33;1.30;;;15.30;99.90;;;;;;4870164;29;20041;-78
2023/09/15 07:13:41;;;;;;;2.80;1.27;;;15.40;1.30;;;;;;4873553;29;20116;-78
2023/09/15 07:16:08;;;;;;;2.22;1.50;;;15.50;99.90;;;;;;4872199;29;20065;-79
2023/09/15 07:18:34;;;;;;;1.38;1.13;;;15.70;99.90;;;;;;4871672;29;20064;-79
2023/09/15 07:20:59;;;;;;;;;;;15.80;62.90;;;;;;4877150;29;20057;-79
2023/09/15 07:23:25;;;;;;;1.55;1.23;;;16.10;1.00;;;;;;4876271;29;20302;-79
2023/09/15 07:25:50;;;;;;;2.50;1.17;;;16.20;72.40;;;;;;4874136;29;20116;-79
2023/09/15 07:28:16;;;;;;;1.23;0.95;;;16.30;99.90;;;;;;4844829;29;20084;-79
2023/09/15 07:30:42;;;;;;;;;;;16.40;99.90;;;;;;4873642;29;20057;-79
2023/09/15 07:33:08;;;;;;;1.35;1.02;;;16.50;99.90;;;;;;4875206;29;20079;-79
2023/09/15 07:35:36;;;;;;;1.83;1.13;;;16.50;10.90;;;;;;4835498;29;1127569;-79
2023/09/15 07:38:03;;;;;;;1.75;1.05;;;16.60;1.00;;;;;;4876233;29;20053;-79
2023/09/15 07:40:29;;;;;;;1.52;1.10;;;16.60;51.40;;;;;;4875207;29;20080;-79
2023/09/15 07:42:55;;;;;;;1.30;0.90;;;16.70;1.00;;;;;;4863143;29;20045;-79
2023/09/15 07:45:21;;;;;;;;;;;16.80;99.90;;;;;;4876896;29;20053;-79
2023/09/15 07:47:47;;;;;;;1.70;1.00;;;16.90;1.00;;;;;;4873584;29;19927;-79
2023/09/15 07:50:13;;;;;;;;;;;16.90;1.00;;;;;;4876911;29;20052;-78
2023/09/15 07:52:39;;;;;;;1.90;1.27;;;17.10;93.20;;;;;;4873833;29;20011;-80
2023/09/15 07:55:06;;;;;;;1.35;0.85;;;17.20;47.60;;;;;;4860761;29;20305;-79
2023/09/15 07:57:32;;;;;;;2.78;1.00;;;17.30;99.90;;;;;;4877324;29;20080;-78
2023/09/15 07:59:59;;;;;;;1.63;0.90;;;17.50;99.90;;;;;;4875141;29;20057;-78
2023/09/15 08:02:27;;;;;;;2.75;0.90;;;17.50;57.50;;;;;;4875846;29;20048;-78
2023/09/15 08:04:53;;;;;;;1.98;1.13;;;17.60;54.50;;;;;;4858483;29;20057;-78
2023/09/15 08:07:19;;;;;;;1.52;0.73;;;17.50;99.90;;;;;;4872380;29;20040;-79
2023/09/15 08:09:45;;;;;;;;;;;17.60;10.60;;;;;;4874418;29;20401;-79
2023/09/15 08:12:10;;;;;;;2.13;1.08;;;17.70;92.70;;;;;;4875916;29;19927;-78
2023/09/15 08:14:36;;;;;;;;;;;17.80;1.00;;;;;;4859312;29;20049;-78
2023/09/15 08:17:02;;;;;;;1.75;1.00;;;18.00;4.00;;;;;;4859927;29;20389;-78
2023/09/15 08:19:28;;;;;;;2.10;1.00;;;18.10;45.50;;;;;;4875194;29;20083;-78
2023/09/15 08:21:54;;;;;;;2.38;1.10;;;18.30;1.00;;;;;;4871451;29;20070;-78
2023/09/15 08:24:22;;;;;;;;;;;18.30;1.00;;;;;;4877802;29;20575;-79
2023/09/15 08:26:48;;;;;;;2.13;1.02;;;18.40;1.00;;;;;;4861666;29;20018;-78
2023/09/15 08:29:14;;;;;;;1.02;0.77;;;18.60;1.00;;;;;;4861784;29;20065;-78
2023/09/15 08:31:41;;;;;;;;;;;18.80;99.90;;;;;;4860502;29;20045;-78
2023/09/15 08:34:07;;;;;;;;;;;18.90;99.90;;;;;;4877728;29;19928;-78
2023/09/15 08:36:33;;;;;;;1.58;0.85;;;18.90;70.10;;;;;;4874957;29;19923;-78
2023/09/15 08:38:58;;;;;;;2.38;1.08;;;18.90;99.90;;;;;;4860875;29;20117;-78
2023/09/15 08:41:52;;;;;;;1.73;1.02;;;19.00;99.90;;;;;;4876706;29;20140;-78
2023/09/15 08:44:20;;;;;;;1.40;0.95;;;19.10;99.90;;;;;;4872239;29;20088;-78
2023/09/15 08:46:48;;;;;;;1.90;0.90;;;19.10;99.90;;;;;;4875428;29;20073;-78
2023/09/15 08:49:15;;;;;;;0.82;0.63;;;19.20;99.90;;;;;;4877576;29;20048;-78
2023/09/15 08:51:43;;;;;;;1.40;0.80;;;19.40;99.90;;;;;;4860570;29;20053;-78
2023/09/15 08:54:09;;;;;;;1.48;0.85;;;19.40;77.70;;;;;;4886407;29;20097;-78
2023/09/15 08:56:36;;;;;;;2.25;0.90;;;19.40;99.90;;;;;;4873402;29;20041;-78
2023/09/15 08:59:04;;;;;;;1.25;0.75;;;19.50;99.90;;;;;;4859432;29;20389;-78
2023/09/15 09:01:30;;;;;;;1.63;0.73;;;19.50;83.20;;;;;;4873652;29;20053;-78
2023/09/15 09:03:56;;;;;;;0.82;0.75;;;19.60;1.00;;;;;;4871637;29;20501;-78
2023/09/15 09:06:24;;;;;;;1.00;0.70;;;19.60;1.00;;;;;;4870078;29;20045;-78
2023/09/15 09:08:49;;;;;;;2.03;1.05;;;19.70;1.00;;;;;;4866723;29;20141;-78
2023/09/15 09:11:15;;;;;;;1.70;0.90;;;19.70;1.00;;;;;;4854686;29;20090;-78
2023/09/15 09:13:49;;;;;;;2.30;0.90;;;19.80;1.00;;;;;;4861140;29;20064;-79
2023/09/15 09:16:15;;;;;;;1.80;0.80;;;19.80;99.90;;;;;;4871117;29;20133;-79
2023/09/15 09:18:41;;;;;;;1.30;0.82;;;19.80;1.00;;;;;;4868794;29;20037;-79
2023/09/15 09:21:07;;;;;;;1.45;0.93;;;19.70;99.90;;;;;;4861595;29;20039;-79
2023/09/15 09:23:33;;;;;;;1.75;0.95;;;19.70;1.00;;;;;;4876607;29;20033;-79
2023/09/15 09:25:59;;;;;;;1.92;1.10;;;19.80;1.00;;;;;;4860993;29;20127;-79
2023/09/15 09:28:26;;;;;;;1.67;1.00;;;19.70;99.90;;;;;;4875372;29;20041;-79
2023/09/15 09:30:56;;;;;;;1.30;0.80;;;19.80;99.90;;;;;;4873600;29;20396;-79
2023/09/15 09:33:22;;;;;;;2.15;1.00;;;19.70;99.90;;;;;;4873315;29;20044;-79
2023/09/15 09:35:51;;;;;;;1.70;0.90;;;19.60;99.90;;;;;;4875824;29;20139;-79
2023/09/15 09:38:17;;;;;;;1.20;0.90;;;19.50;99.90;;;;;;4874776;29;20082;-79
2023/09/15 09:40:44;;;;;;;2.10;0.90;;;19.40;99.90;;;;;;4875576;29;20145;-79
2023/09/15 09:43:12;;;;;;;1.67;0.95;;;19.30;1.00;;;;;;4874096;29;20053;-79
2023/09/15 09:45:38;;;;;;;1.55;0.93;;;19.40;1.00;;;;;;4845623;29;20057;-79
2023/09/15 09:48:04;;;;;;;1.05;0.80;;;19.40;1.00;;;;;;4876184;29;20055;-80
2023/09/15 09:50:30;;;;;;;1.70;0.88;;;19.40;99.90;;;;;;4876939;29;20049;-78
2023/09/15 09:52:56;;;;;;;1.08;0.75;;;19.40;99.90;;;;;;4861149;29;20033;-79
2023/09/15 09:55:24;;;;;;;;;;;19.50;99.90;;;;;;4860392;29;20496;-79
2023/09/15 09:57:51;;;;;;;2.50;1.00;;;19.60;99.90;;;;;;4876342;29;20302;-80
2023/09/15 10:00:21;;;;;;;1.40;0.90;;;19.60;99.90;;;;;;4875514;29;20528;-78
2023/09/15 10:02:47;;;;;;;2.38;1.00;;;19.50;99.90;;;;;;4870795;29;20120;-79
2023/09/15 10:05:14;;;;;;;1.67;1.13;;;19.60;99.90;;;;;;4874841;29;20065;-79
2023/09/15 10:07:40;;;;;;;1.85;1.08;;;19.60;99.90;;;;;;4875392;29;20052;-79
2023/09/15 10:10:07;;;;;;;1.20;1.00;;;19.80;99.90;;;;;;4871790;29;20370;-79
2023/09/15 10:12:34;;;;;;;1.42;1.17;;;19.70;99.90;;;;;;4874387;29;20124;-80
2023/09/15 10:15:02;;;;;;;1.60;1.00;;;19.70;99.90;;;;;;4860377;29;20478;-80
2023/09/15 10:17:28;;;;;;;1.23;1.00;;;19.80;99.90;;;;;;4875841;29;20045;-80
2023/09/15 10:19:55;;;;;;;1.55;1.10;;;19.80;99.90;;;;;;4844731;29;20040;-80
2023/09/15 10:22:21;;;;;;;1.48;0.80;;;19.90;99.90;;;;;;4875778;29;20041;-80
2023/09/15 10:24:57;;;;;;;1.15;0.80;;;20.00;99.90;;;;;;4844314;29;20134;-78
2023/09/15 10:27:23;;;;;;;2.15;1.20;;;20.20;99.90;;;;;;4871448;29;20504;-78
2023/09/15 10:29:48;;;;;;;2.10;1.20;;;20.30;99.90;;;;;;4871500;29;20104;-79
2023/09/15 10:32:18;;;;;;;1.17;1.00;;;20.40;99.90;;;;;;4845283;29;20045;-78
2023/09/15 10:34:47;;;;;;;1.70;1.00;;;20.60;99.90;;;;;;4873133;29;20056;-83
2023/09/15 10:37:13;;;;;;;1.50;0.93;;;20.80;91.70;;;;;;4854005;29;20045;-78
2023/09/15 10:39:41;;;;;;;1.65;1.00;;;20.90;1.00;;;;;;4856987;29;20044;-78
2023/09/15 10:42:13;;;;;;;1.48;1.00;;;21.10;1.00;;;;;;4860339;29;20115;-78
2023/09/15 10:44:43;;;;;;;1.30;0.90;;;21.30;99.90;;;;;;4875936;29;20100;-78
2023/09/15 10:47:20;;;;;;;0.82;0.70;;;21.40;1.00;;;;;;4875120;29;20052;-78
2023/09/15 10:49:53;;;;;;;1.23;0.90;;;21.60;1.00;;;;;;4874584;29;20061;-78
2023/09/15 10:52:34;;;;;;;1.52;1.00;;;21.80;1.00;;;;;;4875177;29;20055;-78
2023/09/15 10:55:00;;;;;;;1.55;1.00;;;21.90;1.00;;;;;;4869024;29;20045;-79
2023/09/15 10:57:27;;;;;;;1.27;0.90;;;22.00;99.90;;;;;;4879419;29;20709;-79
2023/09/15 10:59:54;;;;;;;1.73;0.90;;;22.20;99.90;;;;;;4879472;29;20056;-78
2023/09/15 11:02:20;;;;;;;1.77;0.95;;;22.40;99.90;;;;;;4865306;29;20060;-79
2023/09/15 11:04:48;;;;;;;1.75;1.05;;;22.40;95.80;;;;;;4880121;29;20116;-78
2023/09/15 11:07:17;;;;;;;1.60;0.95;;;22.50;99.90;;;;;;4880238;29;20045;-78
2023/09/15 11:09:43;;;;;;;2.35;1.08;;;22.50;17.20;;;;;;4879706;29;20124;-78
2023/09/15 11:12:13;;;;;;;1.80;1.08;;;22.50;1.00;;;;;;4864614;29;20113;-78
2023/09/15 11:14:39;;;;;;;1.23;1.02;;;22.70;99.90;;;;;;4877361;29;20048;-79
2023/09/15 11:17:05;;;;;;;2.00;1.00;;;22.80;52.90;;;;;;4880062;29;20485;-79
2023/09/15 11:19:33;;;;;;;3.30;1.25;;;22.80;1.00;;;;;;4879532;29;20041;-79
2023/09/15 11:22:05;;;;;;;1.40;1.00;;;22.80;1.00;;;;;;4864361;29;20052;-79
2023/09/15 11:24:32;;;;;;;1.15;0.73;;;22.70;1.00;;;;;;4879269;29;20141;-79
2023/09/15 11:27:00;;;;;;;1.90;0.90;;;22.80;15.70;;;;;;4878677;29;20052;-79
2023/09/15 11:29:31;;;;;;;1.05;0.77;;;22.90;16.60;;;;;;4878552;29;20045;-79
2023/09/15 11:31:58;;;;;;;1.13;0.88;;;22.90;99.90;;;;;;4863895;29;20394;-79
2023/09/15 11:34:25;;;;;;;1.83;1.00;;;23.10;98.60;;;;;;4879167;29;20381;-80
2023/09/15 11:36:56;;;;;;;1.95;0.90;;;23.20;99.90;;;;;;4864679;29;20053;-79
2023/09/15 11:39:23;;;;;;;2.85;1.27;;;23.30;99.90;;;;;;4881685;29;20049;-79
2023/09/15 11:41:54;;;;;;;1.98;1.02;;;23.40;99.90;;;;;;4863210;29;20045;-77
2023/09/15 11:44:31;;;;;;;2.10;1.00;;;23.40;99.90;;;;;;4863872;29;20091;-77
2023/09/15 11:47:00;;;;;;;1.52;1.10;;;23.50;99.90;;;;;;4879496;29;20059;-77
2023/09/15 11:49:27;;;;;;;1.90;1.10;;;23.60;99.90;;;;;;4879353;29;21468;-78
2023/09/15 11:51:57;;;;;;;0.95;0.70;;;23.80;99.90;;;;;;4879209;29;20059;-79
2023/09/15 11:54:26;;;;;;;2.30;0.88;;;23.90;99.90;;;;;;4840423;29;20401;-79
2023/09/15 11:56:53;;;;;;;1.40;0.90;;;24.10;99.90;;;;;;4879200;29;20048;-79
2023/09/15 11:59:20;;;;;;;1.70;1.02;;;24.10;99.90;;;;;;4864681;29;20047;-79
2023/09/15 12:01:48;;;;;;;1.08;0.75;;;24.10;1.00;;;;;;4879046;29;20076;-79
2023/09/15 12:04:14;;;;;;;1.08;0.80;;;24.00;99.90;;;;;;4865162;29;20397;-80
2023/09/15 12:06:41;;;;;;;1.30;0.90;;;23.90;99.90;;;;;;4871861;29;20140;-82
2023/09/15 12:09:12;;;;;;;1.52;0.80;;;23.80;57.00;;;;;;4880300;29;20049;-81
2023/09/15 12:11:44;;;;;;;1.60;0.90;;;23.80;58.50;;;;;;4880613;29;20057;-81
2023/09/15 12:14:14;;;;;;;1.75;0.90;;;23.70;99.90;;;;;;4879954;29;20045;-81
2023/09/15 12:16:45;;;;;;;1.58;0.80;;;23.80;99.90;;;;;;4880456;29;20041;-82
2023/09/15 12:19:12;;;;;;;1.80;0.80;;;24.00;99.90;;;;;;4874101;29;20136;-81
2023/09/15 12:21:37;;;;;;;2.15;0.60;;;24.00;92.80;;;;;;4878748;29;20421;-81
2023/09/15 12:24:14;;;;;;;1.23;0.70;;;24.10;54.30;;;;;;4862803;29;20055;-81
2023/09/15 12:26:42;;;;;;;1.50;0.98;;;24.10;76.20;;;;;;4878243;29;20792;-81
2023/09/15 12:29:08;;;;;;;1.40;0.80;;;24.10;15.40;;;;;;4878326;29;20065;-81
2023/09/15 12:31:42;;;;;;;1.48;0.90;;;24.10;3.60;;;;;;4861792;29;20409;-81
2023/09/15 12:34:08;;;;;;;2.28;1.25;;;24.10;99.90;;;;;;4878045;29;20547;-81
2023/09/15 12:36:33;;;;;;;1.30;0.75;;;24.20;1.00;;;;;;4857464;29;20049;-80
2023/09/15 12:38:59;;;;;;;0.90;0.60;;;24.30;1.00;;;;;;4862442;29;20041;-81
2023/09/15 12:41:25;;;;;;;1.35;0.90;;;24.40;1.00;;;;;;4861914;29;20093;-81
2023/09/15 12:43:51;;;;;;;2.00;1.02;;;24.10;99.90;;;;;;4878029;29;20088;-80
2023/09/15 12:46:16;;;;;;;1.63;1.00;;;23.90;1.00;;;;;;4875910;29;20084;-80
2023/09/15 12:48:43;;;;;;;1.10;0.70;;;23.90;1.00;;;;;;4862324;29;20048;-80
2023/09/15 12:51:11;;;;;;;1.20;0.88;;;23.90;1.00;;;;;;4877558;29;20053;-80
2023/09/15 12:53:37;;;;;;;1.55;0.80;;;24.10;1.00;;;;;;4877619;29;20071;-79
2023/09/15 12:56:03;;;;;;;1.88;1.13;;;24.00;1.00;;;;;;4877501;29;20136;-79
2023/09/15 12:58:29;;;;;;;2.35;1.00;;;23.90;1.00;;;;;;4877545;29;20048;-79
2023/09/15 13:00:55;;;;;;;0.80;0.68;;;23.80;45.60;;;;;;4877136;29;20029;-79
2023/09/15 13:03:21;;;;;;;1.90;0.90;;;23.50;45.00;;;;;;4876836;29;20132;-79
2023/09/15 13:05:47;;;;;;;1.35;0.88;;;23.40;99.90;;;;;;4861439;29;20124;-79